Terminal Aerodrome Forecast
Issued by NWS

Home | Current Version | Previous Version | Text Only | Print | Product List | Glossary On
Versions: 1 2 3 4 5 6 7 8 9 10 11 12 13 14 15 16 17 18 19 20
000
FTUS41 KBTV 240300 AAC
TAFMSS
TAF AMD
KMSS 240300Z 2403/2424 VRB02KT 3SM BR SCT002 SCT035
      TEMPO 2403/2406 1/2SM FG BKN002
     FM240600 00000KT 1SM BR BKN002
      TEMPO 2408/2412 4SM BR SCT002
     FM241200 18005KT P6SM SCT035=

USA.gov is the U.S. government's official web portal to all federal, state and local government web resources and services.